Time;durP1;ratioP1;P1;durP2;ratioP2;P2;SDS_P1;SDS_P2;PMS_P1;PMS_P2;Temp;Humidity;BMP_temperature;BMP_pressure;BME280_temperature;BME280_humidity;BME280_pressure;Samples;Min_cycle;Max_cycle;Signal;HPM_P1;HPM_P2
2021/08/10 00:02:26;;;;;;;1.50;1.30;;;19.90;99.90;;;;;;4993253;28;20198;-75
2021/08/10 00:04:53;;;;;;;2.90;1.90;;;19.80;99.90;;;;;;4993555;28;20201;-76
2021/08/10 00:07:22;;;;;;;2.00;1.60;;;19.90;99.90;;;;;;4993936;28;20229;-75
2021/08/10 00:09:48;;;;;;;1.80;1.50;;;19.80;99.90;;;;;;4994365;28;20205;-76
2021/08/10 00:12:15;;;;;;;1.65;1.30;;;19.80;99.90;;;;;;4993551;28;20209;-76
2021/08/10 00:14:42;;;;;;;2.30;1.48;;;19.80;99.90;;;;;;4993222;28;20677;-76
2021/08/10 00:17:09;;;;;;;2.08;1.30;;;19.80;99.90;;;;;;4993303;28;20241;-76
2021/08/10 00:19:36;;;;;;;2.75;1.55;;;19.70;99.90;;;;;;4992573;28;20201;-75
2021/08/10 00:22:03;;;;;;;1.60;1.30;;;19.70;99.90;;;;;;4993302;28;20205;-76
2021/08/10 00:24:31;;;;;;;1.83;1.70;;;19.70;99.90;;;;;;4993115;28;20204;-76
2021/08/10 00:27:00;;;;;;;1.83;1.48;;;19.80;99.90;;;;;;4992664;28;20558;-75
2021/08/10 00:29:27;;;;;;;1.65;1.20;;;19.80;99.90;;;;;;4992361;28;20209;-75
2021/08/10 00:31:54;;;;;;;1.42;1.10;;;19.70;99.90;;;;;;4992489;28;20205;-75
2021/08/10 00:34:21;;;;;;;1.42;1.30;;;19.70;99.90;;;;;;4992899;28;20547;-75
2021/08/10 00:36:48;;;;;;;2.50;1.67;;;19.70;99.90;;;;;;4992960;28;20217;-75
2021/08/10 00:39:15;;;;;;;3.63;1.83;;;19.60;99.90;;;;;;4992980;28;20654;-76
2021/08/10 00:41:43;;;;;;;1.67;1.38;;;19.60;99.90;;;;;;4992749;28;20569;-76
2021/08/10 00:44:10;;;;;;;1.95;1.50;;;19.60;99.90;;;;;;4992192;28;20205;-75
2021/08/10 00:46:37;;;;;;;1.73;1.30;;;19.60;99.90;;;;;;4992690;28;20205;-76
2021/08/10 00:49:04;;;;;;;2.05;1.40;;;19.60;99.90;;;;;;4992747;28;20212;-76
2021/08/10 00:51:30;;;;;;;1.63;1.50;;;19.60;99.90;;;;;;4992750;28;20198;-76
2021/08/10 00:53:57;;;;;;;3.58;1.85;;;19.50;99.90;;;;;;4992707;28;20216;-76
2021/08/10 00:56:24;;;;;;;1.70;1.33;;;19.50;99.90;;;;;;4991732;28;20590;-76
2021/08/10 00:58:52;;;;;;;1.25;1.02;;;19.60;99.90;;;;;;4993378;28;20201;-76
2021/08/10 01:01:19;;;;;;;2.28;1.88;;;19.50;99.90;;;;;;4993468;28;20198;-76
2021/08/10 01:03:45;;;;;;;2.85;1.58;;;19.50;99.90;;;;;;4992279;28;20198;-76
2021/08/10 01:06:19;;;;;;;5.40;1.50;;;19.50;99.90;;;;;;4991217;28;20201;-76
2021/08/10 01:08:53;;;;;;;1.63;1.35;;;19.50;99.90;;;;;;4992193;28;20237;-76
2021/08/10 01:11:29;;;;;;;2.30;1.50;;;19.50;99.90;;;;;;4992677;28;20239;-75
2021/08/10 01:14:03;;;;;;;1.90;1.58;;;19.40;99.90;;;;;;4991375;28;20201;-76
2021/08/10 01:16:38;;;;;;;3.13;1.77;;;19.40;99.90;;;;;;4991704;28;20194;-76
2021/08/10 01:19:20;;;;;;;1.73;1.23;;;19.40;99.90;;;;;;4992324;28;20193;-75
2021/08/10 01:21:52;;;;;;;1.90;1.45;;;19.30;99.90;;;;;;4992284;28;20188;-75
2021/08/10 01:24:22;;;;;;;1.95;1.75;;;19.40;99.90;;;;;;4992717;28;20221;-75
2021/08/10 01:27:01;;;;;;;2.58;1.33;;;19.30;99.90;;;;;;4992014;28;20552;-75
2021/08/10 01:29:36;;;;;;;1.80;1.30;;;19.30;99.90;;;;;;4992143;28;20188;-75
2021/08/10 01:32:04;;;;;;;1.60;1.33;;;19.30;99.90;;;;;;4991255;28;20200;-75
2021/08/10 01:34:35;;;;;;;2.40;1.30;;;19.30;99.90;;;;;;4991901;28;20220;-76
2021/08/10 01:37:06;;;;;;;1.80;1.60;;;19.30;99.90;;;;;;4991544;28;20567;-75
2021/08/10 01:39:35;;;;;;;3.60;1.95;;;19.30;99.90;;;;;;4991812;28;20197;-75
2021/08/10 01:42:02;;;;;;;2.03;1.50;;;19.30;99.90;;;;;;4991815;28;20201;-75
2021/08/10 01:44:30;;;;;;;1.60;1.50;;;19.30;99.90;;;;;;4991554;28;20658;-76
2021/08/10 01:46:59;;;;;;;2.17;1.70;;;19.30;99.90;;;;;;4991450;28;20197;-76
2021/08/10 01:49:28;;;;;;;1.30;1.20;;;19.30;99.90;;;;;;4991300;28;20204;-75
2021/08/10 01:51:57;;;;;;;1.80;1.42;;;19.20;99.90;;;;;;4990219;28;20625;-75
2021/08/10 01:54:26;;;;;;;1.80;1.35;;;19.20;99.90;;;;;;4991419;28;20194;-75
2021/08/10 01:56:53;;;;;;;1.63;1.20;;;19.20;99.90;;;;;;4991484;28;20217;-75
2021/08/10 01:59:21;;;;;;;2.30;1.67;;;19.20;99.90;;;;;;4991861;28;20220;-75
2021/08/10 02:01:49;;;;;;;2.20;1.30;;;19.20;99.90;;;;;;4991447;28;20224;-76
2021/08/10 02:04:19;;;;;;;2.30;1.30;;;19.10;99.90;;;;;;4990912;28;20205;-75
2021/08/10 02:06:47;;;;;;;2.38;1.10;;;19.10;99.90;;;;;;4991067;28;20642;-75
2021/08/10 02:09:17;;;;;;;1.30;1.20;;;19.10;99.90;;;;;;4991275;28;20843;-76
2021/08/10 02:11:44;;;;;;;1.60;1.10;;;19.10;99.90;;;;;;4990784;28;20657;-76
2021/08/10 02:14:13;;;;;;;1.70;1.40;;;19.00;99.90;;;;;;4990111;28;20221;-75
2021/08/10 02:16:40;;;;;;;2.10;1.45;;;19.00;99.90;;;;;;4990234;28;20229;-75
2021/08/10 02:19:07;;;;;;;1.77;1.45;;;19.00;99.90;;;;;;4991355;28;20202;-74
2021/08/10 02:21:39;;;;;;;2.70;1.40;;;19.00;99.90;;;;;;4991265;28;20204;-75
2021/08/10 02:24:09;;;;;;;2.88;1.25;;;19.00;99.90;;;;;;4990508;28;20186;-75
2021/08/10 02:26:42;;;;;;;2.45;1.90;;;19.00;99.90;;;;;;4990664;28;20197;-75
2021/08/10 02:29:10;;;;;;;1.98;1.77;;;19.00;99.90;;;;;;4990984;28;20216;-75
2021/08/10 02:31:38;;;;;;;1.25;1.00;;;19.00;99.90;;;;;;4990538;28;20539;-74
2021/08/10 02:34:04;;;;;;;2.53;1.50;;;19.00;99.90;;;;;;4990610;28;20544;-76
2021/08/10 02:36:33;;;;;;;2.45;1.40;;;18.90;99.90;;;;;;4989874;28;20194;-75
2021/08/10 02:39:07;;;;;;;2.95;1.08;;;18.90;99.90;;;;;;4978902;28;20650;-76
2021/08/10 02:41:38;;;;;;;1.55;1.33;;;18.90;99.90;;;;;;4991028;28;20197;-75
2021/08/10 02:44:07;;;;;;;2.00;1.70;;;19.00;99.90;;;;;;4990683;28;20196;-75
2021/08/10 02:46:34;;;;;;;4.63;1.23;;;18.90;99.90;;;;;;4990410;28;20562;-75
2021/08/10 02:49:00;;;;;;;1.58;1.30;;;18.90;99.90;;;;;;4990602;28;20594;-75
2021/08/10 02:51:27;;;;;;;1.95;1.63;;;18.90;99.90;;;;;;4989185;28;20205;-75
2021/08/10 02:53:54;;;;;;;2.13;1.70;;;18.90;99.90;;;;;;4989143;28;20208;-75
2021/08/10 02:56:24;;;;;;;1.73;1.27;;;18.90;99.90;;;;;;4991003;28;20194;-75
2021/08/10 02:58:59;;;;;;;1.80;1.35;;;18.90;99.90;;;;;;4991241;28;20201;-75
2021/08/10 03:01:30;;;;;;;1.98;1.45;;;18.80;99.90;;;;;;4989755;28;20197;-76
2021/08/10 03:03:59;;;;;;;1.55;1.27;;;18.90;99.90;;;;;;4990152;28;20185;-75
2021/08/10 03:06:27;;;;;;;2.55;1.42;;;18.80;99.90;;;;;;4990485;28;20243;-75
2021/08/10 03:08:58;;;;;;;2.25;1.50;;;18.80;99.90;;;;;;4990712;28;20235;-75
2021/08/10 03:11:26;;;;;;;1.67;1.20;;;18.80;99.90;;;;;;4990768;28;20193;-75
2021/08/10 03:13:56;;;;;;;1.35;1.25;;;18.80;99.90;;;;;;4989939;28;20197;-76
2021/08/10 03:16:25;;;;;;;1.23;1.10;;;18.80;99.90;;;;;;4990957;28;20216;-76
2021/08/10 03:18:52;;;;;;;1.67;1.20;;;18.80;99.90;;;;;;4990600;28;20225;-77
2021/08/10 03:21:21;;;;;;;1.67;1.58;;;18.80;99.90;;;;;;4989930;28;20201;-75
2021/08/10 03:23:50;;;;;;;1.65;1.50;;;18.80;99.90;;;;;;4989967;28;20205;-75
2021/08/10 03:26:18;;;;;;;2.05;1.60;;;18.70;99.90;;;;;;4989820;28;20201;-75
2021/08/10 03:28:46;;;;;;;1.58;1.48;;;18.70;99.90;;;;;;4989381;28;20209;-75
2021/08/10 03:31:15;;;;;;;3.70;1.33;;;18.70;99.90;;;;;;4989986;28;20200;-76
2021/08/10 03:33:42;;;;;;;1.52;1.20;;;18.70;99.90;;;;;;4988589;28;20554;-75
2021/08/10 03:36:10;;;;;;;1.48;1.08;;;18.70;99.90;;;;;;4988602;28;20217;-75
2021/08/10 03:38:38;;;;;;;1.67;1.58;;;18.70;99.90;;;;;;4989996;28;20574;-75
2021/08/10 03:41:06;;;;;;;2.90;1.40;;;18.80;99.90;;;;;;4989910;28;20197;-76
2021/08/10 03:43:35;;;;;;;2.03;1.48;;;18.70;99.90;;;;;;4989932;28;20194;-75
2021/08/10 03:46:02;;;;;;;1.77;1.40;;;18.70;99.90;;;;;;4988212;28;20207;-76
2021/08/10 03:48:33;;;;;;;1.60;1.38;;;18.60;99.90;;;;;;4989814;28;20561;-75
2021/08/10 03:51:01;;;;;;;1.50;1.30;;;18.70;99.90;;;;;;4989498;28;20210;-75
2021/08/10 03:53:30;;;;;;;1.73;1.30;;;18.70;99.90;;;;;;4990265;28;20634;-75
2021/08/10 03:55:58;;;;;;;3.35;1.45;;;18.70;99.90;;;;;;4989539;28;20260;-76
2021/08/10 03:58:28;;;;;;;2.50;1.45;;;18.70;99.90;;;;;;4989458;28;20673;-75
2021/08/10 04:00:56;;;;;;;2.05;1.83;;;18.70;99.90;;;;;;4990636;28;20182;-74
2021/08/10 04:03:24;;;;;;;1.92;1.50;;;18.60;99.90;;;;;;4989639;28;20206;-76
2021/08/10 04:05:52;;;;;;;2.30;1.42;;;18.60;99.90;;;;;;4989420;28;20202;-75
2021/08/10 04:08:19;;;;;;;1.80;1.20;;;18.60;99.90;;;;;;4988912;28;20225;-76
2021/08/10 04:10:48;;;;;;;2.03;1.40;;;18.60;99.90;;;;;;4988884;28;20528;-76
2021/08/10 04:13:15;;;;;;;2.40;1.30;;;18.60;99.90;;;;;;4989827;28;20210;-76
2021/08/10 04:15:43;;;;;;;1.88;1.42;;;18.60;99.90;;;;;;4991075;28;20200;-75
2021/08/10 04:18:13;;;;;;;1.40;1.20;;;18.50;99.90;;;;;;4992919;28;20213;-75
2021/08/10 04:20:39;;;;;;;2.67;1.50;;;18.50;99.90;;;;;;4993093;28;20209;-75
2021/08/10 04:23:08;;;;;;;1.77;1.67;;;18.60;99.90;;;;;;4992433;28;20215;-75
2021/08/10 04:25:34;;;;;;;2.60;1.70;;;18.60;99.90;;;;;;4993393;28;20208;-75
2021/08/10 04:28:01;;;;;;;2.20;1.40;;;18.60;99.90;;;;;;4992956;28;20196;-75
2021/08/10 04:30:28;;;;;;;1.67;1.20;;;18.60;99.90;;;;;;4993511;28;20202;-75
2021/08/10 04:32:55;;;;;;;1.60;1.27;;;18.60;99.90;;;;;;4992389;28;20209;-75
2021/08/10 04:35:22;;;;;;;1.85;1.40;;;18.60;99.90;;;;;;4992912;28;20202;-75
2021/08/10 04:37:49;;;;;;;2.10;1.40;;;18.60;99.90;;;;;;4992786;28;20225;-74
2021/08/10 04:40:17;;;;;;;1.67;1.58;;;18.60;99.90;;;;;;4992678;28;20566;-74
2021/08/10 04:42:44;;;;;;;1.83;1.50;;;18.60;99.90;;;;;;4992228;28;20205;-75
2021/08/10 04:45:11;;;;;;;2.38;1.65;;;18.60;99.90;;;;;;4991806;28;20205;-74
2021/08/10 04:47:38;;;;;;;4.47;1.50;;;18.60;99.90;;;;;;4992642;28;20562;-75
2021/08/10 04:50:06;;;;;;;3.05;2.08;;;18.60;99.90;;;;;;4992646;28;20206;-75
2021/08/10 04:52:33;;;;;;;1.50;1.30;;;18.50;99.90;;;;;;4992249;28;20217;-75
2021/08/10 04:54:59;;;;;;;2.10;1.90;;;18.60;99.90;;;;;;4992839;28;20193;-75
2021/08/10 04:57:28;;;;;;;2.67;1.58;;;18.50;99.90;;;;;;4992380;28;20594;-75
2021/08/10 04:59:54;;;;;;;1.85;1.27;;;18.60;99.90;;;;;;4993067;28;20292;-75
2021/08/10 05:02:21;;;;;;;1.63;1.52;;;18.60;99.90;;;;;;4992088;28;20566;-75
2021/08/10 05:04:48;;;;;;;1.80;1.65;;;18.60;99.90;;;;;;4992437;28;20197;-75
2021/08/10 05:07:14;;;;;;;2.55;1.77;;;18.60;99.90;;;;;;4992140;28;20226;-75
2021/08/10 05:09:42;;;;;;;2.78;2.25;;;18.60;99.90;;;;;;4991246;28;20209;-75
2021/08/10 05:12:09;;;;;;;1.95;1.52;;;18.50;99.90;;;;;;4991371;28;20276;-75
2021/08/10 05:14:37;;;;;;;3.20;1.80;;;18.50;99.90;;;;;;4992413;28;20201;-75
2021/08/10 05:17:05;;;;;;;3.25;1.73;;;18.50;99.90;;;;;;4985514;28;20272;-75
2021/08/10 05:19:31;;;;;;;2.08;1.80;;;18.50;99.90;;;;;;4972511;28;20226;-75
2021/08/10 05:21:58;;;;;;;2.20;1.70;;;18.50;99.90;;;;;;4977942;28;20197;-75
2021/08/10 05:24:25;;;;;;;2.22;1.90;;;18.50;99.90;;;;;;4991925;28;20288;-75
2021/08/10 05:26:52;;;;;;;2.38;1.83;;;18.50;99.90;;;;;;4988930;28;20639;-75
2021/08/10 05:29:19;;;;;;;2.20;2.00;;;18.50;99.90;;;;;;4991227;28;20201;-75
2021/08/10 05:31:47;;;;;;;3.65;1.92;;;18.50;99.90;;;;;;4991787;28;20672;-74
2021/08/10 05:34:13;;;;;;;3.13;2.45;;;18.50;99.90;;;;;;4991611;28;20197;-74
2021/08/10 05:36:40;;;;;;;3.33;2.15;;;18.50;99.90;;;;;;4991130;28;20200;-75
2021/08/10 05:39:07;;;;;;;2.92;2.63;;;18.50;99.90;;;;;;4991371;28;20234;-75
2021/08/10 05:41:34;;;;;;;3.00;1.90;;;18.50;99.90;;;;;;4990650;28;20201;-75
2021/08/10 05:44:01;;;;;;;3.15;2.28;;;18.50;99.90;;;;;;4992036;28;20665;-74
2021/08/10 05:46:27;;;;;;;2.28;1.90;;;18.60;99.90;;;;;;4991731;28;20566;-74
2021/08/10 05:48:57;;;;;;;2.20;2.00;;;18.60;99.90;;;;;;4991214;28;20204;-74
2021/08/10 05:51:24;;;;;;;3.25;1.90;;;18.80;99.90;;;;;;4991673;28;20265;-74
2021/08/10 05:53:51;;;;;;;2.60;1.90;;;19.00;99.90;;;;;;4990929;28;20221;-75
2021/08/10 05:56:17;;;;;;;2.45;1.85;;;19.20;99.90;;;;;;4990087;28;20212;-75
2021/08/10 05:58:44;;;;;;;2.85;1.88;;;19.40;99.90;;;;;;4991214;28;20229;-75
2021/08/10 06:01:11;;;;;;;3.92;2.00;;;19.60;99.90;;;;;;4990647;28;20201;-74
2021/08/10 06:03:38;;;;;;;2.10;1.75;;;19.80;99.90;;;;;;4991530;28;20205;-75
2021/08/10 06:06:06;;;;;;;2.03;1.77;;;19.80;99.90;;;;;;4991001;28;20639;-75
2021/08/10 06:08:32;;;;;;;2.00;1.75;;;19.90;99.90;;;;;;4975036;28;20233;-76
2021/08/10 06:10:59;;;;;;;3.50;2.30;;;20.00;99.90;;;;;;4983088;28;20201;-75
2021/08/10 06:13:26;;;;;;;2.35;2.15;;;20.10;99.90;;;;;;4990581;28;20197;-75
2021/08/10 06:15:54;;;;;;;2.75;1.98;;;20.30;99.90;;;;;;4990609;28;20197;-76
2021/08/10 06:18:21;;;;;;;3.58;1.85;;;20.40;99.90;;;;;;4990953;28;20678;-75
2021/08/10 06:20:47;;;;;;;2.63;1.70;;;20.50;99.90;;;;;;4990009;28;20205;-76
2021/08/10 06:23:15;;;;;;;2.22;2.00;;;20.60;99.90;;;;;;4990120;28;20280;-75
2021/08/10 06:25:42;;;;;;;4.05;2.00;;;20.50;99.90;;;;;;4990532;28;20201;-75
2021/08/10 06:28:09;;;;;;;2.10;1.67;;;20.50;99.90;;;;;;4990935;28;20197;-75
2021/08/10 06:30:36;;;;;;;2.13;1.63;;;20.40;99.90;;;;;;4990657;28;20205;-74
2021/08/10 06:33:03;;;;;;;3.45;2.20;;;20.40;99.90;;;;;;4990374;28;20205;-78
2021/08/10 06:35:30;;;;;;;2.65;2.40;;;20.30;99.90;;;;;;4990455;28;20201;-77
2021/08/10 06:37:56;;;;;;;1.60;1.50;;;20.30;99.90;;;;;;4986156;28;20566;-76
2021/08/10 06:40:24;;;;;;;2.38;1.55;;;20.20;99.90;;;;;;4990718;28;20315;-77
2021/08/10 06:42:51;;;;;;;2.05;1.80;;;20.10;99.90;;;;;;4990683;28;20208;-76
2021/08/10 06:45:18;;;;;;;3.03;1.92;;;20.10;99.90;;;;;;4990165;28;20232;-77
2021/08/10 06:47:47;;;;;;;2.28;1.80;;;20.00;99.90;;;;;;4990485;28;20198;-77
2021/08/10 06:50:15;;;;;;;2.30;1.80;;;20.00;99.90;;;;;;4990390;28;20205;-76
2021/08/10 06:52:42;;;;;;;3.13;1.80;;;20.00;99.90;;;;;;4990627;28;20701;-76
2021/08/10 06:55:09;;;;;;;3.17;1.80;;;20.10;99.90;;;;;;4989570;28;20203;-77
2021/08/10 06:57:38;;;;;;;2.38;1.80;;;20.30;99.90;;;;;;4989931;28;20194;-77
2021/08/10 07:00:06;;;;;;;1.50;1.30;;;20.50;99.90;;;;;;4989956;28;20245;-78
2021/08/10 07:02:33;;;;;;;3.33;2.35;;;20.70;99.90;;;;;;4990639;28;20193;-77
2021/08/10 07:05:00;;;;;;;3.80;1.98;;;20.80;99.90;;;;;;4990702;28;20202;-77
2021/08/10 07:07:26;;;;;;;1.95;1.75;;;21.00;99.90;;;;;;4989212;28;20232;-76
2021/08/10 07:09:53;;;;;;;1.90;1.60;;;21.20;99.90;;;;;;4989797;28;20201;-77
2021/08/10 07:12:20;;;;;;;1.70;1.60;;;21.40;99.90;;;;;;4990328;28;20647;-77
2021/08/10 07:14:48;;;;;;;2.45;1.70;;;21.50;99.90;;;;;;4990296;28;20583;-77
2021/08/10 07:17:15;;;;;;;1.90;1.60;;;21.60;99.90;;;;;;4989614;28;20208;-77
2021/08/10 07:19:42;;;;;;;2.83;2.03;;;21.70;99.90;;;;;;4988903;28;20571;-78
2021/08/10 07:22:08;;;;;;;2.15;1.90;;;21.90;99.90;;;;;;4990512;28;20209;-77
2021/08/10 07:24:35;;;;;;;1.90;1.40;;;22.00;99.90;;;;;;4990525;28;20263;-78
2021/08/10 07:27:02;;;;;;;1.70;1.47;;;22.10;99.90;;;;;;4990516;28;20448;-77
2021/08/10 07:29:29;;;;;;;1.80;1.50;;;22.20;99.90;;;;;;4990203;28;20444;-77
2021/08/10 07:31:57;;;;;;;2.30;1.70;;;22.30;99.90;;;;;;4989713;28;20965;-77
2021/08/10 07:34:24;;;;;;;2.00;1.73;;;22.30;99.90;;;;;;4990085;28;20464;-77
2021/08/10 07:36:50;;;;;;;2.23;1.63;;;22.10;99.90;;;;;;4993320;28;20459;-79
2021/08/10 07:39:18;;;;;;;2.47;1.97;;;22.00;99.90;;;;;;4995786;28;20476;-78
2021/08/10 07:41:45;;;;;;;2.57;2.20;;;22.00;99.90;;;;;;4994735;28;20448;-78
2021/08/10 07:44:11;;;;;;;3.00;1.97;;;22.10;99.90;;;;;;4993164;28;20829;-78
2021/08/10 07:46:38;;;;;;;3.27;2.10;;;22.10;99.90;;;;;;4991772;28;20476;-78
2021/08/10 07:49:06;;;;;;;3.60;2.50;;;22.20;99.90;;;;;;4986843;28;20464;-78
2021/08/10 07:51:33;;;;;;;3.23;2.33;;;22.30;99.90;;;;;;4994409;28;20483;-78
2021/08/10 07:54:00;;;;;;;2.67;1.97;;;22.30;99.90;;;;;;4991407;28;20937;-78
2021/08/10 07:56:26;;;;;;;2.30;1.80;;;22.30;99.90;;;;;;4996423;28;20452;-78
2021/08/10 07:58:53;;;;;;;2.60;2.10;;;22.30;99.90;;;;;;4997366;28;20495;-79
2021/08/10 08:01:20;;;;;;;3.70;2.17;;;22.40;99.90;;;;;;4995624;28;20444;-78
2021/08/10 08:03:47;;;;;;;2.03;1.70;;;22.50;99.90;;;;;;4992711;28;20936;-78
2021/08/10 08:06:15;;;;;;;2.00;1.80;;;22.50;99.90;;;;;;4994746;28;20474;-78
2021/08/10 08:08:42;;;;;;;2.20;1.60;;;22.60;99.90;;;;;;4988452;28;20552;-78
2021/08/10 08:11:08;;;;;;;2.33;1.83;;;22.50;99.90;;;;;;4998488;28;20468;-78
2021/08/10 08:13:35;;;;;;;1.83;1.40;;;22.50;99.90;;;;;;4998754;28;20460;-78
2021/08/10 08:16:02;;;;;;;2.43;1.73;;;22.40;99.90;;;;;;4998990;28;20449;-78
2021/08/10 08:18:29;;;;;;;3.00;2.27;;;22.20;99.90;;;;;;4997242;28;20465;-78
2021/08/10 08:20:56;;;;;;;2.07;1.70;;;22.20;99.90;;;;;;4996481;28;20465;-78
2021/08/10 08:23:27;;;;;;;2.50;2.00;;;22.10;99.90;;;;;;4996190;28;20455;-78
2021/08/10 08:25:54;;;;;;;3.88;1.92;;;22.00;99.90;;;;;;4997098;28;20894;-78
2021/08/10 08:28:21;;;;;;;2.67;2.10;;;21.80;99.90;;;;;;4997668;28;20256;-78
2021/08/10 08:30:48;;;;;;;2.95;1.90;;;21.70;99.90;;;;;;4997395;28;20252;-78
2021/08/10 08:33:15;;;;;;;3.20;2.22;;;21.60;99.90;;;;;;4995903;28;20209;-78
2021/08/10 08:35:41;;;;;;;3.35;2.28;;;21.60;99.90;;;;;;4996321;28;20201;-78
2021/08/10 08:38:09;;;;;;;3.20;2.30;;;21.50;99.90;;;;;;4997099;28;20562;-78
2021/08/10 08:40:42;;;;;;;2.35;2.10;;;21.50;99.90;;;;;;4998076;28;20221;-78
2021/08/10 08:43:09;;;;;;;3.15;1.75;;;21.40;99.90;;;;;;4997433;28;20205;-78
2021/08/10 08:45:36;;;;;;;2.92;2.30;;;21.30;99.90;;;;;;4996662;28;20554;-78
2021/08/10 08:48:04;;;;;;;2.83;2.22;;;21.30;99.90;;;;;;4997775;28;20197;-78
2021/08/10 08:50:33;;;;;;;2.55;1.77;;;21.30;99.90;;;;;;4997242;28;20680;-79
2021/08/10 08:53:03;;;;;;;2.40;2.20;;;21.30;99.90;;;;;;4996290;28;20201;-78
2021/08/10 08:55:30;;;;;;;3.88;2.90;;;21.30;99.90;;;;;;4993915;28;20300;-78
2021/08/10 08:58:00;;;;;;;2.97;2.20;;;21.40;99.90;;;;;;4992810;28;20189;-78
2021/08/10 09:00:27;;;;;;;2.88;1.70;;;21.50;99.90;;;;;;4995761;28;20225;-78
2021/08/10 09:02:53;;;;;;;2.42;1.95;;;21.70;99.90;;;;;;4996422;28;20201;-78
2021/08/10 09:05:20;;;;;;;3.75;2.13;;;21.90;99.90;;;;;;4995747;28;20198;-78
2021/08/10 09:07:47;;;;;;;2.45;2.10;;;22.00;99.90;;;;;;4994932;28;20578;-78
2021/08/10 09:10:16;;;;;;;2.57;1.83;;;22.10;99.90;;;;;;4994764;28;20197;-78
2021/08/10 09:12:45;;;;;;;2.57;2.33;;;22.10;99.90;;;;;;4996843;28;20455;-78
2021/08/10 09:15:29;;;;;;;4.60;3.03;;;22.10;99.90;;;;;;4996794;28;20457;-78
2021/08/10 09:17:56;;;;;;;2.63;2.20;;;22.10;99.90;;;;;;4982023;28;20449;-78
2021/08/10 09:20:23;;;;;;;2.37;2.17;;;22.10;99.90;;;;;;4996377;28;20480;-78
2021/08/10 09:22:53;;;;;;;2.33;2.07;;;22.20;99.90;;;;;;4984493;28;20457;-78
2021/08/10 09:25:20;;;;;;;2.40;1.93;;;22.20;99.90;;;;;;4977875;28;20942;-78
2021/08/10 09:27:46;;;;;;;2.90;2.20;;;22.30;99.90;;;;;;4977221;28;20453;-78
2021/08/10 09:30:17;;;;;;;3.63;2.30;;;22.20;99.90;;;;;;4990189;28;20459;-78
2021/08/10 09:33:00;;;;;;;2.70;1.60;;;22.10;99.90;;;;;;4995357;28;20913;-78
2021/08/10 09:35:31;;;;;;;2.67;2.17;;;22.10;99.90;;;;;;4994254;28;20448;-78
2021/08/10 09:38:20;;;;;;;3.30;2.10;;;22.10;99.90;;;;;;4996130;28;20424;-78
2021/08/10 09:40:48;;;;;;;3.13;2.30;;;22.20;99.90;;;;;;4986611;28;20512;-79
2021/08/10 09:43:20;;;;;;;3.07;2.03;;;22.30;99.90;;;;;;4996052;28;20457;-79
2021/08/10 09:45:49;;;;;;;3.97;2.63;;;22.40;99.90;;;;;;4996283;28;20944;-78
2021/08/10 09:48:17;;;;;;;2.00;1.80;;;22.40;99.90;;;;;;4994921;28;20464;-79
2021/08/10 09:50:44;;;;;;;3.90;2.53;;;22.50;99.90;;;;;;4995685;28;20457;-78
2021/08/10 09:53:18;;;;;;;3.50;2.53;;;22.60;99.90;;;;;;4995772;28;20448;-78
2021/08/10 09:55:55;;;;;;;3.67;2.67;;;22.60;99.90;;;;;;4995024;28;20475;-78
2021/08/10 09:58:21;;;;;;;3.10;2.57;;;22.60;99.90;;;;;;4994778;28;20455;-78
2021/08/10 10:00:50;;;;;;;6.50;2.30;;;22.70;99.90;;;;;;4991934;28;20492;-78
2021/08/10 10:03:19;;;;;;;4.90;2.30;;;22.70;99.90;;;;;;4982464;28;20460;-78
2021/08/10 10:05:46;;;;;;;2.93;2.70;;;22.70;99.90;;;;;;4992234;28;20464;-78
2021/08/10 10:08:17;;;;;;;7.20;2.10;;;22.70;99.90;;;;;;4993696;28;20488;-78
2021/08/10 10:21:26;;;;;;;5.00;2.37;;;22.70;99.90;;;;;;4992446;28;20239;-78
2021/08/10 10:23:57;;;;;;;3.43;2.60;;;22.60;99.90;;;;;;4982870;28;20472;-78
2021/08/10 10:26:24;;;;;;;2.60;2.30;;;22.60;99.90;;;;;;4997827;28;20954;-78
2021/08/10 10:28:52;;;;;;;3.27;2.97;;;22.60;99.90;;;;;;5013667;28;20454;-78
2021/08/10 10:31:19;;;;;;;3.60;3.23;;;22.60;99.90;;;;;;5007179;28;20464;-78
2021/08/10 10:33:46;;;;;;;5.00;2.90;;;22.50;99.90;;;;;;4994474;28;20444;-78
2021/08/10 10:36:36;;;;;;;3.80;2.27;;;22.50;99.90;;;;;;4993475;28;20471;-78
2021/08/10 10:39:07;;;;;;;3.60;3.00;;;22.50;99.90;;;;;;4994410;28;20456;-78
2021/08/10 10:41:35;;;;;;;3.00;2.47;;;22.60;99.90;;;;;;4993614;28;20650;-78
2021/08/10 10:44:02;;;;;;;3.40;2.60;;;22.60;99.90;;;;;;4994901;28;20451;-78
2021/08/10 10:46:32;;;;;;;3.20;2.93;;;22.60;99.90;;;;;;4994297;28;20455;-79
2021/08/10 10:49:00;;;;;;;4.67;2.80;;;22.60;99.90;;;;;;4994330;28;20535;-78
2021/08/10 10:51:32;;;;;;;3.40;2.73;;;22.60;99.90;;;;;;4993224;28;20468;-79
2021/08/10 10:54:25;;;;;;;2.93;2.23;;;22.60;99.90;;;;;;4993585;28;20496;-78
2021/08/10 10:56:53;;;;;;;4.97;3.43;;;22.60;99.90;;;;;;4984815;28;20475;-78
2021/08/10 10:59:36;;;;;;;3.10;2.80;;;22.60;99.90;;;;;;4994848;28;20445;-78
2021/08/10 11:02:26;;;;;;;2.97;2.50;;;22.60;99.90;;;;;;4992024;28;20551;-78
2021/08/10 11:05:28;;;;;;;3.50;2.43;;;22.60;99.90;;;;;;4983953;28;20957;-78
2021/08/10 11:07:56;;;;;;;5.33;2.80;;;22.60;99.90;;;;;;4990221;28;20822;-80
2021/08/10 11:10:42;;;;;;;3.17;2.87;;;22.60;99.90;;;;;;4996139;28;20484;-80
2021/08/10 11:13:42;;;;;;;4.37;3.33;;;22.60;99.90;;;;;;4992220;28;20470;-78
2021/08/10 11:16:10;;;;;;;5.00;2.80;;;22.70;99.90;;;;;;4917551;29;20452;-80
2021/08/10 11:18:38;;;;;;;4.40;2.90;;;22.70;99.90;;;;;;4916426;29;20464;-79
2021/08/10 11:21:27;;;;;;;3.37;3.03;;;22.70;99.90;;;;;;4950782;28;20540;-78
2021/08/10 11:23:55;;;;;;;3.50;3.07;;;22.70;99.90;;;;;;4971925;28;20429;-78
2021/08/10 11:26:43;;;;;;;3.60;2.87;;;22.80;99.90;;;;;;4989225;28;20456;-77
2021/08/10 11:29:12;;;;;;;3.70;2.93;;;22.80;99.90;;;;;;4995221;28;20971;-78
2021/08/10 11:31:50;;;;;;;4.90;3.30;;;22.80;99.90;;;;;;4998982;28;20437;-77
2021/08/10 11:34:40;;;;;;;3.50;2.90;;;22.80;99.90;;;;;;4986762;28;20449;-77
2021/08/10 11:37:35;;;;;;;3.20;2.60;;;22.80;99.90;;;;;;4994953;28;20460;-78
2021/08/10 11:40:12;;;;;;;3.37;2.53;;;22.80;99.90;;;;;;4949803;28;20488;-77
2021/08/10 11:42:42;;;;;;;3.33;2.97;;;22.80;99.90;;;;;;4995748;28;20551;-78
2021/08/10 11:45:10;;;;;;;3.40;2.43;;;22.70;99.90;;;;;;4988669;28;20445;-77
2021/08/10 11:47:36;;;;;;;3.90;3.23;;;22.70;99.90;;;;;;4999913;28;20447;-78
2021/08/10 11:50:04;;;;;;;3.07;2.40;;;22.70;99.90;;;;;;4997302;28;20451;-77
2021/08/10 11:52:45;;;;;;;2.97;2.57;;;22.70;99.90;;;;;;4989449;28;20456;-77
2021/08/10 11:55:12;;;;;;;3.10;2.80;;;22.70;99.90;;;;;;4979353;28;20940;-77
2021/08/10 11:58:05;;;;;;;3.67;3.27;;;22.80;99.90;;;;;;4996699;28;20813;-77
2021/08/10 12:00:34;;;;;;;3.07;2.77;;;22.80;99.90;;;;;;4986598;28;20477;-77
2021/08/10 12:03:01;;;;;;;3.40;2.83;;;22.80;99.90;;;;;;4995729;28;20973;-77
2021/08/10 12:05:29;;;;;;;3.80;2.80;;;22.80;99.90;;;;;;4996469;28;20461;-77
2021/08/10 12:07:58;;;;;;;4.20;3.17;;;22.70;99.90;;;;;;4996486;28;20819;-77
2021/08/10 12:10:29;;;;;;;4.70;3.27;;;22.70;99.90;;;;;;4996844;28;20880;-77
2021/08/10 12:12:58;;;;;;;3.47;3.17;;;22.70;99.90;;;;;;4995800;28;20507;-77
2021/08/10 12:15:41;;;;;;;4.47;3.10;;;22.70;99.90;;;;;;4994025;28;20460;-77
2021/08/10 12:18:09;;;;;;;3.60;2.60;;;22.70;99.90;;;;;;4994417;28;20474;-78
2021/08/10 12:20:35;;;;;;;3.07;2.77;;;22.80;99.90;;;;;;4995408;28;20495;-77
2021/08/10 12:23:04;;;;;;;5.70;3.20;;;22.80;99.90;;;;;;4995786;28;20945;-77
2021/08/10 12:25:31;;;;;;;3.30;3.00;;;22.80;99.90;;;;;;4999615;28;20460;-80
2021/08/10 12:28:02;;;;;;;3.43;2.73;;;22.80;99.90;;;;;;4995763;28;20872;-77
2021/08/10 12:30:32;;;;;;;2.23;2.03;;;22.80;99.90;;;;;;4996183;28;20475;-77
2021/08/10 12:33:14;;;;;;;3.67;2.77;;;22.80;99.90;;;;;;4996873;28;20472;-78
2021/08/10 12:35:55;;;;;;;6.47;3.47;;;22.80;99.90;;;;;;4993705;28;20949;-76
2021/08/10 12:38:23;;;;;;;4.13;2.80;;;22.80;99.90;;;;;;4999939;28;20479;-77
2021/08/10 12:40:51;;;;;;;4.40;3.50;;;22.70;99.90;;;;;;4997195;28;20488;-77
2021/08/10 12:43:18;;;;;;;5.27;3.00;;;22.80;99.90;;;;;;4996305;28;20464;-77
2021/08/10 12:45:45;;;;;;;4.00;3.17;;;22.80;99.90;;;;;;4996058;28;20893;-77
2021/08/10 12:48:34;;;;;;;3.80;3.00;;;22.80;99.90;;;;;;4995363;28;20456;-77
2021/08/10 12:51:03;;;;;;;3.00;2.70;;;22.80;99.90;;;;;;4996708;28;20433;-77
2021/08/10 12:53:33;;;;;;;2.93;2.70;;;22.90;99.90;;;;;;4996080;28;20494;-77
2021/08/10 12:56:01;;;;;;;3.20;2.90;;;22.90;99.90;;;;;;4985314;28;20952;-77
2021/08/10 12:58:28;;;;;;;3.93;2.40;;;23.00;99.90;;;;;;4995523;28;20472;-77
2021/08/10 13:01:04;;;;;;;3.73;2.93;;;22.90;99.90;;;;;;4996226;28;20473;-77
2021/08/10 13:03:33;;;;;;;3.33;2.97;;;22.90;99.90;;;;;;4995898;28;20555;-77
2021/08/10 13:06:01;;;;;;;3.30;2.50;;;23.00;99.90;;;;;;4995229;28;20986;-77
2021/08/10 13:08:28;;;;;;;3.93;3.30;;;23.00;99.90;;;;;;4995070;28;20484;-77
2021/08/10 13:10:58;;;;;;;3.30;2.10;;;23.00;99.90;;;;;;4995528;28;20448;-77